createdAt,value
2018-09-04T00:00:35.973Z,17.35
2018-09-04T00:01:35.895Z,17.32
2018-09-04T00:02:35.826Z,17.44
2018-09-04T00:03:35.740Z,17.33
2018-09-04T00:04:35.682Z,17.35
2018-09-04T00:05:35.588Z,17.40
2018-09-04T00:06:35.531Z,17.44
2018-09-04T00:07:35.440Z,17.29
2018-09-04T00:08:35.372Z,17.43
2018-09-04T00:09:35.303Z,17.43
2018-09-04T00:10:35.223Z,17.43
2018-09-04T00:11:35.145Z,17.40
2018-09-04T00:12:35.073Z,17.46
2018-09-04T00:13:34.999Z,17.40
2018-09-04T00:14:34.931Z,17.44
2018-09-04T00:15:34.848Z,17.43
2018-09-04T00:16:34.779Z,17.44
2018-09-04T00:17:34.700Z,17.40
2018-09-04T00:18:34.631Z,17.50
2018-09-04T00:19:34.556Z,17.48
2018-09-04T00:20:34.484Z,17.29
2018-09-04T00:21:34.399Z,17.50
2018-09-04T00:22:34.337Z,17.30
2018-09-04T00:23:34.249Z,17.29
2018-09-04T00:24:34.182Z,17.35
2018-09-04T00:25:34.100Z,17.39
2018-09-04T00:26:34.035Z,17.35
2018-09-04T00:27:33.951Z,17.32
2018-09-04T00:28:33.881Z,17.32
2018-09-04T00:29:33.804Z,17.38
2018-09-04T00:30:33.734Z,17.50
2018-09-04T00:31:33.656Z,17.46
2018-09-04T00:32:33.586Z,17.33
2018-09-04T00:33:33.512Z,17.36
2018-09-04T00:34:33.518Z,17.30
2018-09-04T00:35:33.363Z,17.39
2018-09-04T00:36:33.290Z,17.30
2018-09-04T00:37:33.201Z,17.33
2018-09-04T00:38:33.143Z,17.43
2018-09-04T00:39:33.056Z,17.32
2018-09-04T00:40:32.996Z,17.38
2018-09-04T00:41:32.905Z,17.39
2018-09-04T00:42:32.847Z,17.28
2018-09-04T00:43:32.759Z,17.44
2018-09-04T00:44:32.687Z,17.33
2018-09-04T00:45:32.619Z,17.32
2018-09-04T00:46:32.549Z,17.47
2018-09-04T00:47:32.458Z,17.46
2018-09-04T00:48:32.393Z,17.32
2018-09-04T00:49:32.310Z,17.29
2018-09-04T00:50:32.249Z,17.46
2018-09-04T00:51:32.166Z,17.36
2018-09-04T00:52:32.096Z,17.36
2018-09-04T00:53:32.017Z,17.33
2018-09-04T00:54:31.950Z,17.40
2018-09-04T00:55:31.861Z,17.32
2018-09-04T00:56:31.801Z,17.44
2018-09-04T00:57:31.728Z,17.33
2018-09-04T00:58:31.652Z,17.33
2018-09-04T00:59:31.565Z,17.43
2018-09-04T01:00:31.497Z,17.29
2018-09-04T01:01:31.416Z,17.35
2018-09-04T01:02:31.355Z,17.40
2018-09-04T01:03:31.269Z,17.38
2018-09-04T01:04:31.208Z,17.28
2018-09-04T01:05:31.120Z,17.40
2018-09-04T01:06:31.051Z,17.43
2018-09-04T01:07:30.971Z,17.40
2018-09-04T01:08:30.903Z,17.33
2018-09-04T01:09:30.825Z,17.26
2018-09-04T01:10:30.755Z,17.36
2018-09-04T01:11:30.679Z,17.44
2018-09-04T01:12:30.606Z,17.43
2018-09-04T01:13:30.532Z,17.32
2018-09-04T01:14:30.458Z,17.38
2018-09-04T01:15:30.378Z,17.29
2018-09-04T01:16:30.308Z,17.44
2018-09-04T01:17:30.223Z,17.29
2018-09-04T01:18:30.160Z,17.40
2018-09-04T01:19:30.073Z,17.38
2018-09-04T01:20:30.014Z,17.39
2018-09-04T01:21:29.929Z,17.47
2018-09-04T01:22:29.857Z,17.30
2018-09-04T01:23:29.775Z,17.26
2018-09-04T01:24:29.706Z,17.47
2018-09-04T01:25:29.627Z,17.33
2018-09-04T01:26:29.562Z,17.36
2018-09-04T01:27:29.485Z,17.28
2018-09-04T01:28:29.413Z,17.33
2018-09-04T01:29:29.355Z,17.35
2018-09-04T01:30:29.266Z,17.38
2018-09-04T01:31:29.192Z,17.40
2018-09-04T01:32:29.117Z,17.28
2018-09-04T01:33:29.042Z,17.30
2018-09-04T01:34:28.968Z,17.32
2018-09-04T01:35:28.881Z,17.38
2018-09-04T01:36:28.824Z,17.32
2018-09-04T01:37:28.732Z,17.33
2018-09-04T01:38:28.672Z,17.28
2018-09-04T01:39:28.583Z,17.26
2018-09-04T01:40:28.519Z,17.36
2018-09-04T01:41:28.436Z,17.29
2018-09-04T01:42:28.375Z,17.30
2018-09-04T01:43:28.291Z,17.35
2018-09-04T01:44:28.216Z,17.29
2018-09-04T01:45:28.139Z,17.29
2018-09-04T01:46:28.071Z,17.32
2018-09-04T01:47:27.993Z,17.30
2018-09-04T01:48:27.929Z,17.29
2018-09-04T01:49:27.847Z,17.28
2018-09-04T01:50:27.776Z,17.32
2018-09-04T01:51:27.697Z,17.32
2018-09-04T01:52:27.629Z,17.35
2018-09-04T01:53:27.538Z,17.35
2018-09-04T01:54:27.478Z,17.33
2018-09-04T01:55:27.390Z,17.29
2018-09-04T01:56:27.325Z,17.33
2018-09-04T01:57:27.242Z,17.32
2018-09-04T01:58:27.185Z,17.33
2018-09-04T01:59:27.094Z,17.36
2018-09-04T02:00:27.031Z,17.33
2018-09-04T02:01:26.942Z,17.29
2018-09-04T02:02:26.877Z,17.32
2018-09-04T02:03:26.802Z,17.32
2018-09-04T02:04:26.736Z,17.46
2018-09-04T02:05:26.650Z,17.29
2018-09-04T02:06:26.580Z,17.36
2018-09-04T02:07:26.501Z,17.23
2018-09-04T02:08:26.432Z,17.29
2018-09-04T02:09:26.348Z,17.30
2018-09-04T02:10:26.283Z,17.32
2018-09-04T02:11:26.200Z,17.38
2018-09-04T02:12:26.128Z,17.28
2018-09-04T02:13:26.048Z,17.39
2018-09-04T02:14:25.988Z,17.30
2018-09-04T02:15:25.900Z,17.32
2018-09-04T02:16:26.834Z,17.32
2018-09-04T02:17:25.753Z,17.46
2018-09-04T02:18:25.684Z,17.30
2018-09-04T02:19:25.608Z,17.35
2018-09-04T02:20:25.537Z,17.32
2018-09-04T02:21:25.461Z,17.28
2018-09-04T02:22:25.394Z,17.33
2018-09-04T02:23:25.309Z,17.32
2018-09-04T02:24:25.246Z,17.39
2018-09-04T02:25:25.154Z,17.30
2018-09-04T02:26:25.091Z,17.33
2018-09-04T02:27:25.009Z,17.26
2018-09-04T02:28:24.948Z,17.36
2018-09-04T02:29:24.858Z,17.36
2018-09-04T02:30:24.789Z,17.46
2018-09-04T02:31:24.709Z,17.36
2018-09-04T02:32:24.635Z,17.38
2018-09-04T02:33:24.558Z,17.33
2018-09-04T02:34:24.489Z,17.38
2018-09-04T02:35:24.411Z,17.38
2018-09-04T02:36:24.343Z,17.36
2018-09-04T02:37:24.264Z,17.30
2018-09-04T02:38:24.191Z,17.30
2018-09-04T02:39:24.112Z,17.35
2018-09-04T02:40:24.045Z,17.30
2018-09-04T02:41:23.965Z,17.33
2018-09-04T02:42:23.897Z,17.39
2018-09-04T02:43:23.813Z,17.35
2018-09-04T02:44:23.741Z,17.35
2018-09-04T02:45:23.662Z,17.40
2018-09-04T02:46:23.595Z,17.35
2018-09-04T02:47:23.513Z,17.35
2018-09-04T02:48:23.443Z,17.33
2018-09-04T02:49:23.362Z,17.29
2018-09-04T02:50:23.296Z,17.48
2018-09-04T02:51:23.217Z,17.32
2018-09-04T02:52:23.154Z,17.35
2018-09-04T02:53:23.068Z,17.48
2018-09-04T02:54:23.000Z,17.29
2018-09-04T02:55:22.924Z,17.33
2018-09-04T02:56:22.851Z,17.38
2018-09-04T02:57:22.770Z,17.29
2018-09-04T02:58:22.704Z,17.40
2018-09-04T02:59:22.624Z,17.35
2018-09-04T03:00:22.553Z,17.46
2018-09-04T03:01:22.468Z,17.26
2018-09-04T03:02:22.398Z,17.32
2018-09-04T03:03:22.318Z,17.32
2018-09-04T03:04:22.254Z,17.26
2018-09-04T03:05:22.172Z,17.32
2018-09-04T03:06:22.111Z,17.32
2018-09-04T03:07:22.027Z,17.38
2018-09-04T03:08:21.954Z,17.35
2018-09-04T03:09:21.874Z,17.35
2018-09-04T03:10:21.815Z,17.30
2018-09-04T03:11:21.746Z,17.36
2018-09-04T03:12:21.659Z,17.40
2018-09-04T03:13:21.618Z,17.32
2018-09-04T03:14:22.081Z,17.32
2018-09-04T03:15:21.432Z,17.33
2018-09-04T03:16:21.364Z,17.35
2018-09-04T03:17:21.273Z,17.29
2018-09-04T03:18:21.214Z,17.33
2018-09-04T03:19:21.124Z,17.29
2018-09-04T03:20:21.060Z,17.39
2018-09-04T03:21:20.974Z,17.32
2018-09-04T03:22:20.909Z,17.35
2018-09-04T03:23:20.830Z,17.35
2018-09-04T03:24:20.760Z,17.29
2018-09-04T03:25:20.685Z,17.38
2018-09-04T03:26:20.611Z,17.32
2018-09-04T03:27:20.535Z,17.40
2018-09-04T03:28:20.464Z,17.33
2018-09-04T03:29:20.389Z,17.29
2018-09-04T03:30:20.318Z,17.29
2018-09-04T03:31:20.237Z,17.35
2018-09-04T03:32:20.170Z,17.35
2018-09-04T03:33:20.081Z,17.21
2018-09-04T03:34:20.021Z,17.23
2018-09-04T03:35:19.933Z,17.30
2018-09-04T03:36:19.864Z,17.29
2018-09-04T03:37:19.784Z,17.29
2018-09-04T03:38:19.714Z,17.25
2018-09-04T03:39:19.636Z,17.35
2018-09-04T03:40:19.566Z,17.38
2018-09-04T03:41:19.489Z,17.28
2018-09-04T03:42:19.474Z,17.25
2018-09-04T03:43:19.343Z,17.29
2018-09-04T03:44:19.304Z,17.26
2018-09-04T03:45:19.192Z,17.28
2018-09-04T03:46:19.121Z,17.32
2018-09-04T03:47:19.038Z,17.20
2018-09-04T03:48:18.978Z,17.21
2018-09-04T03:49:18.888Z,17.18
2018-09-04T03:50:18.896Z,17.32
2018-09-04T03:51:18.734Z,17.33
2018-09-04T03:52:18.830Z,17.28
2018-09-04T03:53:18.588Z,17.25
2018-09-04T03:54:19.542Z,17.32
2018-09-04T03:55:18.445Z,17.20
2018-09-04T03:56:18.433Z,17.26
2018-09-04T03:57:18.297Z,17.23
2018-09-04T03:58:20.288Z,17.21
2018-09-04T03:59:18.149Z,17.23
2018-09-04T04:00:20.100Z,17.25
2018-09-04T04:01:18.046Z,17.28
2018-09-04T04:02:17.954Z,17.28
2018-09-04T04:03:17.841Z,17.26
2018-09-04T04:04:17.870Z,17.23
2018-09-04T04:05:17.696Z,17.25
2018-09-04T04:06:17.673Z,17.28
2018-09-04T04:07:17.543Z,17.23
2018-09-04T04:08:17.588Z,17.14
2018-09-04T04:09:17.392Z,17.26
2018-09-04T04:10:17.394Z,17.17
2018-09-04T04:11:17.257Z,17.30
2018-09-04T04:12:17.210Z,17.26
2018-09-04T04:13:17.098Z,17.21
2018-09-04T04:14:17.115Z,17.26
2018-09-04T04:15:16.954Z,17.30
2018-09-04T04:16:16.921Z,17.26
2018-09-04T04:17:16.792Z,17.28
2018-09-04T04:18:16.835Z,17.28
2018-09-04T04:19:16.646Z,17.32
2018-09-04T04:20:16.637Z,17.33
2018-09-04T04:21:16.499Z,17.26
2018-09-04T04:22:16.452Z,17.29
2018-09-04T04:23:16.349Z,17.33
2018-09-04T04:24:16.360Z,17.32
2018-09-04T04:25:16.198Z,17.28
2018-09-04T04:26:16.169Z,17.30
2018-09-04T04:27:16.050Z,17.35
2018-09-04T04:28:16.079Z,17.30
2018-09-04T04:29:15.923Z,17.39
2018-09-04T04:30:15.839Z,17.32
2018-09-04T04:31:15.751Z,17.28
2018-09-04T04:32:15.740Z,17.39
2018-09-04T04:33:15.637Z,17.32
2018-09-04T04:34:15.607Z,17.43
2018-09-04T04:35:15.451Z,17.26
2018-09-04T04:36:15.384Z,17.39
2018-09-04T04:37:15.342Z,17.36
2018-09-04T04:38:15.276Z,17.35
2018-09-04T04:39:15.154Z,17.33
2018-09-04T04:40:15.093Z,17.33
2018-09-04T04:41:15.011Z,17.38
2018-09-04T04:42:15.051Z,17.32
2018-09-04T04:43:14.860Z,17.32
2018-09-04T04:44:14.851Z,17.43
2018-09-04T04:45:14.816Z,17.33
2018-09-04T04:46:14.653Z,17.30
2018-09-04T04:47:14.556Z,17.38
2018-09-04T04:48:14.538Z,17.40
2018-09-04T04:49:14.412Z,17.48
2018-09-04T04:50:14.405Z,17.40
2018-09-04T04:51:14.259Z,17.30
2018-09-04T04:52:14.239Z,17.30
2018-09-04T04:53:14.111Z,17.33
2018-09-04T04:54:14.102Z,17.39
2018-09-04T04:55:13.963Z,17.32
2018-09-04T04:56:13.912Z,17.38
2018-09-04T04:57:13.815Z,17.33
2018-09-04T04:58:13.824Z,17.40
2018-09-04T04:59:13.666Z,17.47
2018-09-04T05:00:13.636Z,17.26
2018-09-04T05:01:13.512Z,17.44
2018-09-04T05:02:13.545Z,17.33
2018-09-04T05:03:13.360Z,17.40
2018-09-04T05:04:13.292Z,17.48
2018-09-04T05:05:13.212Z,17.29
2018-09-04T05:06:13.165Z,17.43
2018-09-04T05:07:13.063Z,17.50
2018-09-04T05:08:13.068Z,17.25
2018-09-04T05:09:12.911Z,17.29
2018-09-04T05:10:12.878Z,17.38
2018-09-04T05:11:12.866Z,17.43
2018-09-04T05:12:12.790Z,17.28
2018-09-04T05:13:12.611Z,17.33
2018-09-04T05:14:12.601Z,17.43
2018-09-04T05:15:12.465Z,17.39
2018-09-04T05:16:12.405Z,17.39
2018-09-04T05:17:12.315Z,17.38
2018-09-04T05:18:12.316Z,17.33
2018-09-04T05:19:12.167Z,17.33
2018-09-04T05:20:12.128Z,17.30
2018-09-04T05:21:12.020Z,17.32
2018-09-04T05:22:12.041Z,17.28
2018-09-04T05:23:11.871Z,17.40
2018-09-04T05:24:11.852Z,17.44
2018-09-04T05:25:11.727Z,17.47
2018-09-04T05:26:11.753Z,17.47
2018-09-04T05:27:11.576Z,17.48
2018-09-04T05:28:11.565Z,17.44
2018-09-04T05:29:11.417Z,17.40
2018-09-04T05:30:11.377Z,17.43
2018-09-04T05:31:11.270Z,17.51
2018-09-04T05:32:11.290Z,17.40
2018-09-04T05:33:11.127Z,17.40
2018-09-04T05:34:11.091Z,17.47
2018-09-04T05:35:10.975Z,17.29
2018-09-04T05:36:11.006Z,17.43
2018-09-04T05:37:10.826Z,17.44
2018-09-04T05:38:10.814Z,17.38
2018-09-04T05:39:10.677Z,17.46
2018-09-04T05:40:10.609Z,17.46
2018-09-04T05:41:10.530Z,17.46
2018-09-04T05:42:10.457Z,17.46
2018-09-04T05:43:10.390Z,17.48
2018-09-04T05:44:10.309Z,17.39
2018-09-04T05:45:10.240Z,17.40
2018-09-04T05:46:10.191Z,17.47
2018-09-04T05:47:10.096Z,17.46
2018-09-04T05:48:10.040Z,17.50
2018-09-04T05:49:09.958Z,17.46
2018-09-04T05:50:09.889Z,17.46
2018-09-04T05:51:09.778Z,17.51
2018-09-04T05:52:09.711Z,17.54
2018-09-04T05:53:09.632Z,17.50
2018-09-04T05:54:09.561Z,17.55
2018-09-04T05:55:09.527Z,17.54
2018-09-04T05:56:09.413Z,17.50
2018-09-04T05:57:09.335Z,17.57
2018-09-04T05:58:09.261Z,17.50
2018-09-04T05:59:09.175Z,17.54
2018-09-04T06:00:09.121Z,17.54
2018-09-04T06:01:09.029Z,17.60
2018-09-04T06:02:08.961Z,17.54
2018-09-04T06:03:08.890Z,17.53
2018-09-04T06:04:08.809Z,17.58
2018-09-04T06:05:08.734Z,17.57
2018-09-04T06:06:08.664Z,17.54
2018-09-04T06:07:08.588Z,17.63
2018-09-04T06:08:08.555Z,17.63
2018-09-04T06:09:08.434Z,17.51
2018-09-04T06:10:08.354Z,17.64
2018-09-04T06:11:08.330Z,17.66
2018-09-04T06:12:08.274Z,17.57
2018-09-04T06:13:08.135Z,17.73
2018-09-04T06:14:08.100Z,17.73
2018-09-04T06:15:08.011Z,17.73
2018-09-04T06:16:07.913Z,17.66
2018-09-04T06:17:08.073Z,17.64
2018-09-04T06:18:07.807Z,17.69
2018-09-04T06:19:07.688Z,17.67
2018-09-04T06:20:07.911Z,17.58
2018-09-04T06:21:07.540Z,17.64
2018-09-04T06:22:07.520Z,17.63
2018-09-04T06:23:07.393Z,17.77
2018-09-04T06:24:07.340Z,17.63
2018-09-04T06:25:07.244Z,17.67
2018-09-04T06:26:07.248Z,17.64
2018-09-04T06:27:07.098Z,17.58
2018-09-04T06:28:07.051Z,17.64
2018-09-04T06:29:06.937Z,17.67
2018-09-04T06:30:06.957Z,17.67
2018-09-04T06:31:06.787Z,17.67
2018-09-04T06:32:06.773Z,17.71
2018-09-04T06:33:06.642Z,17.69
2018-09-04T06:34:06.699Z,17.69
2018-09-04T06:35:06.494Z,17.58
2018-09-04T06:36:06.499Z,17.71
2018-09-04T06:37:06.354Z,17.63
2018-09-04T06:38:06.294Z,17.71
2018-09-04T06:39:06.198Z,17.69
2018-09-04T06:40:06.212Z,17.66
2018-09-04T06:41:06.047Z,17.57
2018-09-04T06:42:06.022Z,17.63
2018-09-04T06:43:05.892Z,17.58
2018-09-04T06:44:06.000Z,17.53
2018-09-04T06:45:05.746Z,17.54
2018-09-04T06:46:05.737Z,17.66
2018-09-04T06:47:05.596Z,17.69
2018-09-04T06:48:05.546Z,17.64
2018-09-04T06:49:05.450Z,17.70
2018-09-04T06:50:05.457Z,17.63
2018-09-04T06:51:05.301Z,17.60
2018-09-04T06:52:05.264Z,17.66
2018-09-04T06:53:05.153Z,17.79
2018-09-04T06:54:05.174Z,17.74
2018-09-04T06:55:05.006Z,17.73
2018-09-04T06:56:04.938Z,17.71
2018-09-04T06:57:04.852Z,17.73
2018-09-04T06:58:04.791Z,17.71
2018-09-04T06:59:04.712Z,17.67
2018-09-04T07:00:04.709Z,17.76
2018-09-04T07:01:04.552Z,17.71
2018-09-04T07:02:04.512Z,17.70
2018-09-04T07:03:04.402Z,17.76
2018-09-04T07:04:04.424Z,17.70
2018-09-04T07:05:04.254Z,17.79
2018-09-04T07:06:04.300Z,17.70
2018-09-04T07:07:04.111Z,17.71
2018-09-04T07:08:04.146Z,17.69
2018-09-04T07:09:03.964Z,17.77
2018-09-04T07:10:03.891Z,17.77
2018-09-04T07:11:03.814Z,17.84
2018-09-04T07:12:03.763Z,17.70
2018-09-04T07:13:03.658Z,17.73
2018-09-04T07:14:03.678Z,17.77
2018-09-04T07:15:03.546Z,17.77
2018-09-04T07:16:03.486Z,17.77
2018-09-04T07:17:03.400Z,17.76
2018-09-04T07:18:03.302Z,17.87
2018-09-04T07:19:03.213Z,17.79
2018-09-04T07:20:03.151Z,17.87
2018-09-04T07:21:03.063Z,17.81
2018-09-04T07:22:03.002Z,17.81
2018-09-04T07:23:02.914Z,17.87
2018-09-04T07:24:02.904Z,17.81
2018-09-04T07:25:02.769Z,17.84
2018-09-04T07:26:02.708Z,17.91
2018-09-04T07:27:02.619Z,17.88
2018-09-04T07:28:02.550Z,17.81
2018-09-04T07:29:02.471Z,17.84
2018-09-04T07:30:02.401Z,17.85
2018-09-04T07:31:02.327Z,17.79
2018-09-04T07:32:02.315Z,17.84
2018-09-04T07:33:02.176Z,17.87
2018-09-04T07:34:02.107Z,17.85
2018-09-04T07:35:02.033Z,17.89
2018-09-04T07:36:01.957Z,17.92
2018-09-04T07:37:01.883Z,17.91
2018-09-04T07:38:01.812Z,17.84
2018-09-04T07:39:01.733Z,17.89
2018-09-04T07:40:01.660Z,17.89
2018-09-04T07:41:01.583Z,17.88
2018-09-04T07:42:01.618Z,17.92
2018-09-04T07:43:01.431Z,17.96
2018-09-04T07:44:01.361Z,17.96
2018-09-04T07:45:01.276Z,17.91
2018-09-04T07:46:01.220Z,17.91
2018-09-04T07:47:01.129Z,17.89
2018-09-04T07:48:01.058Z,17.92
2018-09-04T07:49:00.987Z,17.92
2018-09-04T07:50:00.912Z,18.02
2018-09-04T07:51:00.843Z,17.92
2018-09-04T07:52:00.765Z,17.98
2018-09-04T07:53:00.686Z,18.09
2018-09-04T07:54:00.621Z,17.94
2018-09-04T07:55:00.536Z,17.96
2018-09-04T07:56:00.467Z,17.95
2018-09-04T07:57:00.390Z,17.96
2018-09-04T07:58:00.325Z,18.10
2018-09-04T07:59:00.244Z,18.06
2018-09-04T08:00:00.220Z,18.06
2018-09-04T08:01:00.141Z,18.06
2018-09-04T08:02:00.023Z,18.07
2018-09-04T08:02:59.944Z,18.07
2018-09-04T08:03:59.875Z,18.09
2018-09-04T08:04:59.797Z,18.11
2018-09-04T08:05:59.726Z,18.07
2018-09-04T08:06:59.650Z,18.11
2018-09-04T08:07:59.579Z,18.04
2018-09-04T08:08:59.500Z,18.13
2018-09-04T08:09:59.460Z,18.13
2018-09-04T08:10:59.341Z,18.07
2018-09-04T08:11:59.284Z,18.07
2018-09-04T08:12:59.199Z,18.14
2018-09-04T08:13:59.133Z,18.11
2018-09-04T08:14:59.048Z,18.19
2018-09-04T08:15:58.978Z,18.19
2018-09-04T08:16:58.898Z,18.18
2018-09-04T08:17:58.833Z,18.16
2018-09-04T08:18:58.752Z,18.13
2018-09-04T08:19:58.691Z,18.27
2018-09-04T08:20:58.618Z,18.22
2018-09-04T08:21:58.544Z,18.25
2018-09-04T08:22:58.457Z,18.28
2018-09-04T08:23:58.385Z,18.29
2018-09-04T08:24:58.307Z,18.35
2018-09-04T08:25:58.246Z,18.37
2018-09-04T08:26:58.159Z,18.43
2018-09-04T08:27:58.089Z,18.43
2018-09-04T08:28:58.014Z,18.39
2018-09-04T08:29:57.942Z,18.43
2018-09-04T08:30:57.859Z,18.58
2018-09-04T08:31:57.793Z,18.53
2018-09-04T08:32:57.805Z,18.55
2018-09-04T08:33:57.645Z,18.55
2018-09-04T08:34:57.572Z,18.64
2018-09-04T08:35:57.495Z,18.62
2018-09-04T08:36:57.421Z,18.61
2018-09-04T08:37:57.347Z,18.64
2018-09-04T08:38:57.268Z,18.64
2018-09-04T08:39:57.216Z,18.65
2018-09-04T08:40:57.122Z,18.73
2018-09-04T08:41:57.054Z,18.69
2018-09-04T08:42:56.969Z,18.79
2018-09-04T08:43:56.906Z,18.73
2018-09-04T08:44:56.827Z,18.73
2018-09-04T08:45:56.759Z,18.84
2018-09-04T08:46:56.679Z,18.89
2018-09-04T08:47:56.612Z,18.95
2018-09-04T08:48:56.531Z,18.94
2018-09-04T08:49:56.464Z,18.92
2018-09-04T08:50:56.385Z,18.89
2018-09-04T08:51:56.315Z,18.97
2018-09-04T08:52:56.238Z,18.87
2018-09-04T08:53:56.174Z,18.94
2018-09-04T08:54:56.089Z,19.01
2018-09-04T08:55:56.027Z,18.94
2018-09-04T08:56:55.938Z,18.97
2018-09-04T08:57:55.870Z,18.98
2018-09-04T08:58:55.792Z,18.97
2018-09-04T08:59:55.723Z,19.02
2018-09-04T09:00:55.643Z,18.99
2018-09-04T09:01:55.581Z,19.08
2018-09-04T09:02:55.495Z,19.02
2018-09-04T09:03:55.469Z,19.06
2018-09-04T09:04:55.347Z,19.13
2018-09-04T09:05:55.279Z,19.13
2018-09-04T09:06:55.200Z,19.21
2018-09-04T09:07:55.139Z,19.13
2018-09-04T09:08:55.053Z,19.25
2018-09-04T09:09:54.996Z,19.14
2018-09-04T09:10:54.905Z,19.18
2018-09-04T09:11:54.843Z,19.23
2018-09-04T09:12:54.756Z,19.27
2018-09-04T09:13:54.696Z,19.25
2018-09-04T09:14:54.616Z,19.27
2018-09-04T09:15:54.548Z,19.31
2018-09-04T09:16:54.472Z,19.27
2018-09-04T09:17:54.401Z,19.20
2018-09-04T09:18:54.320Z,19.28
2018-09-04T09:19:54.253Z,19.21
2018-09-04T09:20:54.173Z,19.28
2018-09-04T09:21:54.106Z,19.27
2018-09-04T09:22:54.191Z,19.25
2018-09-04T09:23:53.957Z,19.27
2018-09-04T09:24:53.878Z,19.25
2018-09-04T09:25:53.818Z,19.28
2018-09-04T09:26:53.732Z,19.32
2018-09-04T09:27:53.660Z,19.28
2018-09-04T09:28:53.581Z,19.38
2018-09-04T09:29:53.518Z,19.39
2018-09-04T09:30:53.435Z,19.54
2018-09-04T09:31:53.370Z,19.51
2018-09-04T09:32:53.284Z,19.55
2018-09-04T09:33:53.227Z,19.60
2018-09-04T09:34:53.139Z,19.64
2018-09-04T09:35:53.082Z,19.72
2018-09-04T09:36:53.090Z,19.82
2018-09-04T09:37:52.932Z,19.88
2018-09-04T09:38:52.853Z,19.95
2018-09-04T09:39:52.782Z,20.03
2018-09-04T09:40:52.703Z,20.06
2018-09-04T09:41:52.642Z,20.24
2018-09-04T09:42:52.556Z,20.23
2018-09-04T09:43:52.491Z,20.24
2018-09-04T09:44:52.417Z,20.28
2018-09-04T09:45:52.344Z,20.26
2018-09-04T09:46:52.258Z,20.27
2018-09-04T09:47:52.192Z,20.26
2018-09-04T09:48:52.111Z,20.26
2018-09-04T09:49:52.054Z,20.20
2018-09-04T09:50:52.046Z,20.30
2018-09-04T09:51:51.906Z,20.23
2018-09-04T09:52:51.908Z,20.33
2018-09-04T09:53:51.758Z,20.20
2018-09-04T09:54:51.677Z,20.26
2018-09-04T09:55:51.635Z,20.30
2018-09-04T09:56:51.531Z,20.26
2018-09-04T09:57:51.460Z,20.38
2018-09-04T09:58:51.382Z,20.40
2018-09-04T09:59:51.334Z,20.46
2018-09-04T10:00:51.247Z,20.38
2018-09-04T10:01:51.186Z,20.42
2018-09-04T10:02:51.176Z,20.43
2018-09-04T10:03:51.088Z,20.43
2018-09-04T10:04:51.005Z,20.43
2018-09-04T10:05:50.875Z,20.51
2018-09-04T10:06:50.810Z,20.50
2018-09-04T10:07:50.807Z,20.47
2018-09-04T10:08:50.711Z,20.54
2018-09-04T10:09:50.646Z,20.49
2018-09-04T10:10:50.518Z,20.61
2018-09-04T10:11:50.437Z,20.65
2018-09-04T10:12:50.367Z,20.66
2018-09-04T10:13:50.290Z,20.79
2018-09-04T10:14:50.329Z,20.84
2018-09-04T10:15:50.280Z,21.01
2018-09-04T10:16:50.240Z,21.04
2018-09-04T10:17:49.997Z,21.04
2018-09-04T10:18:49.969Z,21.02
2018-09-04T10:19:49.941Z,21.17
2018-09-04T10:20:49.930Z,21.04
2018-09-04T10:21:49.732Z,21.09
2018-09-04T10:22:49.701Z,21.08
2018-09-04T10:23:49.643Z,21.12
2018-09-04T10:24:49.578Z,21.14
2018-09-04T10:25:49.419Z,21.19
2018-09-04T10:26:49.492Z,21.39
2018-09-04T10:27:49.270Z,21.36
2018-09-04T10:28:49.402Z,21.46
2018-09-04T10:29:49.132Z,21.53
2018-09-04T10:30:49.196Z,21.56
2018-09-04T10:31:48.985Z,21.66
2018-09-04T10:32:49.126Z,21.82
2018-09-04T10:33:48.838Z,21.86
2018-09-04T10:34:48.763Z,22.08
2018-09-04T10:35:48.696Z,22.01
2018-09-04T10:36:48.747Z,22.16
2018-09-04T10:37:48.551Z,22.24
2018-09-04T10:38:48.554Z,22.22
2018-09-04T10:39:48.405Z,22.23
2018-09-04T10:40:48.333Z,22.23
2018-09-04T10:41:48.263Z,22.24
2018-09-04T10:42:48.313Z,22.37
2018-09-04T10:43:48.117Z,22.42
2018-09-04T10:44:48.109Z,22.38
2018-09-04T10:45:47.981Z,22.41
2018-09-04T10:46:48.102Z,22.39
2018-09-04T10:47:47.921Z,22.39
2018-09-04T10:48:47.808Z,22.35
2018-09-04T10:49:47.693Z,22.44
2018-09-04T10:50:47.814Z,22.41
2018-09-04T10:51:47.543Z,22.52
2018-09-04T10:52:47.548Z,22.41
2018-09-04T10:53:47.404Z,22.42
2018-09-04T10:54:47.549Z,22.42
2018-09-04T10:55:47.351Z,22.26
2018-09-04T10:56:49.796Z,22.28
2018-09-04T10:57:47.220Z,22.41
2018-09-04T10:58:47.259Z,22.26
2018-09-04T10:59:46.976Z,22.32
2018-09-04T11:00:47.068Z,22.28
2018-09-04T11:01:46.836Z,22.32
2018-09-04T11:02:46.976Z,22.23
2018-09-04T11:03:46.688Z,22.28
2018-09-04T11:04:46.789Z,22.24
2018-09-04T11:05:46.548Z,22.28
2018-09-04T11:06:46.602Z,22.24
2018-09-04T11:07:46.402Z,22.26
2018-09-04T11:08:46.504Z,22.42
2018-09-04T11:09:46.398Z,22.46
2018-09-04T11:10:48.364Z,22.50
2018-09-04T11:11:46.116Z,22.53
2018-09-04T11:12:48.178Z,22.50
2018-09-04T11:13:45.975Z,22.47
2018-09-04T11:14:46.038Z,22.57
2018-09-04T11:15:45.832Z,22.52
2018-09-04T11:16:45.955Z,22.50
2018-09-04T11:17:45.687Z,22.60
2018-09-04T11:18:45.753Z,22.57
2018-09-04T11:19:45.549Z,22.60
2018-09-04T11:20:45.733Z,22.60
2018-09-04T11:21:45.408Z,22.60
2018-09-04T11:22:45.377Z,22.68
2018-09-04T11:23:45.351Z,22.74
2018-09-04T11:24:45.389Z,22.75
2018-09-04T11:25:45.121Z,22.83
2018-09-04T11:26:47.169Z,22.74
2018-09-04T11:27:46.860Z,22.84
2018-09-04T11:28:46.989Z,22.86
2018-09-04T11:29:46.222Z,22.96
2018-09-04T11:30:46.933Z,23.04
2018-09-04T11:31:44.693Z,23.14
2018-09-04T11:32:44.829Z,23.18
2018-09-04T11:33:44.558Z,23.34
2018-09-04T11:34:44.652Z,23.49
2018-09-04T11:35:44.412Z,23.46
2018-09-04T11:36:44.553Z,23.49
2018-09-04T11:37:44.559Z,23.50
2018-09-04T11:38:44.231Z,23.52
2018-09-04T11:39:44.135Z,23.50
2018-09-04T11:40:44.140Z,23.56
2018-09-04T11:41:44.177Z,23.43
2018-09-04T11:42:43.918Z,23.38
2018-09-04T11:43:43.922Z,23.31
2018-09-04T11:44:43.780Z,23.26
2018-09-04T11:45:43.793Z,23.37
2018-09-04T11:46:43.648Z,23.40
2018-09-04T11:47:43.703Z,23.37
2018-09-04T11:48:43.497Z,23.49
2018-09-04T11:49:43.554Z,23.53
2018-09-04T11:50:43.364Z,23.49
2018-09-04T11:51:43.324Z,23.52
2018-09-04T11:52:43.209Z,23.50
2018-09-04T11:53:43.343Z,23.56
2018-09-04T11:54:43.087Z,23.55
2018-09-04T11:55:43.142Z,23.48
2018-09-04T11:56:42.935Z,23.52
2018-09-04T11:57:43.062Z,23.48
2018-09-04T11:58:42.796Z,23.49
2018-09-04T11:59:42.834Z,23.46
2018-09-04T12:00:42.650Z,23.45
2018-09-04T12:01:42.780Z,23.42
2018-09-04T12:02:42.509Z,23.49
2018-09-04T12:03:42.589Z,23.53
2018-09-04T12:04:42.370Z,23.58
2018-09-04T12:05:42.444Z,23.68
2018-09-04T12:06:42.272Z,23.79
2018-09-04T12:07:42.207Z,23.97
2018-09-04T12:08:42.090Z,24.01
2018-09-04T12:09:42.116Z,24.11
2018-09-04T12:10:41.948Z,24.25
2018-09-04T12:11:41.928Z,24.34
2018-09-04T12:12:42.013Z,24.26
2018-09-04T12:13:41.836Z,24.34
2018-09-04T12:14:41.673Z,24.47
2018-09-04T12:15:41.652Z,24.45
2018-09-04T12:16:41.569Z,24.57
2018-09-04T12:17:41.584Z,24.64
2018-09-04T12:18:41.385Z,24.67
2018-09-04T12:19:41.367Z,24.79
2018-09-04T12:20:41.338Z,24.66
2018-09-04T12:21:41.278Z,24.62
2018-09-04T12:22:41.112Z,24.67
2018-09-04T12:23:41.090Z,24.52
2018-09-04T12:24:41.050Z,24.45
2018-09-04T12:25:41.003Z,24.38
2018-09-04T12:26:40.833Z,24.30
2018-09-04T12:27:40.763Z,24.30
2018-09-04T12:28:40.691Z,24.45
2018-09-04T12:29:40.717Z,24.44
2018-09-04T12:30:40.560Z,24.42
2018-09-04T12:31:40.528Z,24.56
2018-09-04T12:32:40.420Z,24.48
2018-09-04T12:33:40.439Z,24.52
2018-09-04T12:34:40.273Z,24.63
2018-09-04T12:35:40.252Z,24.64
2018-09-04T12:36:40.153Z,24.59
2018-09-04T12:37:40.165Z,24.60
2018-09-04T12:38:40.006Z,24.53
2018-09-04T12:39:39.962Z,24.41
2018-09-04T12:40:39.858Z,24.44
2018-09-04T12:41:39.880Z,24.42
2018-09-04T12:42:39.724Z,24.54
2018-09-04T12:43:39.690Z,24.45
2018-09-04T12:44:39.582Z,24.45
2018-09-04T12:45:39.601Z,24.57
2018-09-04T12:46:39.440Z,24.59
2018-09-04T12:47:39.520Z,24.62
2018-09-04T12:48:39.384Z,24.64
2018-09-04T12:49:39.319Z,24.52
2018-09-04T12:50:39.169Z,24.57
2018-09-04T12:51:39.228Z,24.54